CYKG

Kangiqsujuaq (Wakeham Bay) Airport

Kangiqsujuaq, Quebec, Canada
METAR CYKG 241300Z 27020G31KT 15SM FEW025 SCT100 BKN250 M00/M05 A3003 RMK SC1AC4CI1 SC TR PRESRR SLP183
Observed Flight Rules
Sep-24 @ 13:00 UTC (an hour ago) Visual Flight Rules
Wind Visibility Clouds
270° at 20 knots
 Gusting to 31 knots
15 miles
  • Few at 2,500' AGL
  • Scattered at 10,000' AGL
  • Broken at 25,000' AGL
Temperatures Readings
Current 0°C / 32°F
Dewpoint -5°C / 23°F
Humidity 69%
Altimeter 30.03" Hg
Pressure 1018.3 hPa
Elevation 151
METAR CYKG 241300Z 27020G31KT 15SM FEW025 SCT100 BKN250 M00/M05 A3003 RMK SC1AC4CI1 SC TR PRESRR SLP183
Observed Flight Rules
Sep-24 @ 13:00 UTC
(an hour ago)
VFR
Wind Visibility
270° at 20 knots
 Gusting to 31 knots
15 miles
Clouds
  • Few at 2,500' AGL
  • Scattered at 10,000' AGL
  • Broken at 25,000' AGL
Temperature Dewpoint
0°C / 32°F -5°C / 23°F
Humidity Altimeter Pressure
69% 30.03" Hg 1018.3 hPa